sensor_id;sensor_type;location;lat;lon;timestamp;pressure;altitude;pressure_sealevel;temperature;humidity
54994;BME280;40891;47.242;8.648;2023-09-30T00:01:21;97150.50;;;20.35;74.41
54994;BME280;40891;47.242;8.648;2023-09-30T00:03:47;97148.69;;;20.32;75.16
54994;BME280;40891;47.242;8.648;2023-09-30T00:06:12;97149.66;;;20.29;75.59
54994;BME280;40891;47.242;8.648;2023-09-30T00:08:37;97147.63;;;20.29;75.80
54994;BME280;40891;47.242;8.648;2023-09-30T00:11:05;97142.53;;;20.33;75.52
54994;BME280;40891;47.242;8.648;2023-09-30T00:13:30;97139.28;;;20.20;74.81
54994;BME280;40891;47.242;8.648;2023-09-30T00:15:56;97143.66;;;20.21;75.40
54994;BME280;40891;47.242;8.648;2023-09-30T00:18:22;97138.72;;;20.16;76.05
54994;BME280;40891;47.242;8.648;2023-09-30T00:20:47;97143.91;;;20.18;75.50
54994;BME280;40891;47.242;8.648;2023-09-30T00:23:13;97145.38;;;20.13;74.73
54994;BME280;40891;47.242;8.648;2023-09-30T00:25:38;97147.16;;;20.11;74.86
54994;BME280;40891;47.242;8.648;2023-09-30T00:28:04;97157.66;;;20.10;74.56
54994;BME280;40891;47.242;8.648;2023-09-30T00:30:30;97159.78;;;20.15;74.65
54994;BME280;40891;47.242;8.648;2023-09-30T00:32:55;97160.91;;;20.23;75.15
54994;BME280;40891;47.242;8.648;2023-09-30T00:35:20;97168.38;;;20.26;73.59
54994;BME280;40891;47.242;8.648;2023-09-30T00:37:46;97154.31;;;20.06;74.91
54994;BME280;40891;47.242;8.648;2023-09-30T00:40:11;97149.91;;;20.05;75.50
54994;BME280;40891;47.242;8.648;2023-09-30T00:42:38;97147.91;;;20.11;74.23
54994;BME280;40891;47.242;8.648;2023-09-30T00:45:04;97143.03;;;20.12;73.30
54994;BME280;40891;47.242;8.648;2023-09-30T00:47:30;97151.03;;;20.13;75.02
54994;BME280;40891;47.242;8.648;2023-09-30T00:49:56;97152.28;;;20.12;76.05
54994;BME280;40891;47.242;8.648;2023-09-30T00:52:21;97148.94;;;20.08;75.63
54994;BME280;40891;47.242;8.648;2023-09-30T00:54:48;97148.94;;;20.08;75.82
54994;BME280;40891;47.242;8.648;2023-09-30T00:57:15;97144.25;;;20.05;75.05
54994;BME280;40891;47.242;8.648;2023-09-30T00:59:41;97137.13;;;20.10;75.47
54994;BME280;40891;47.242;8.648;2023-09-30T01:02:07;97132.19;;;20.05;76.51
54994;BME280;40891;47.242;8.648;2023-09-30T01:04:33;97131.19;;;20.08;77.12
54994;BME280;40891;47.242;8.648;2023-09-30T01:06:58;97124.66;;;19.96;75.88
54994;BME280;40891;47.242;8.648;2023-09-30T01:09:23;97118.50;;;19.98;76.70
54994;BME280;40891;47.242;8.648;2023-09-30T01:11:49;97115.69;;;19.98;76.82
54994;BME280;40891;47.242;8.648;2023-09-30T01:14:24;97114.59;;;19.90;78.63
54994;BME280;40891;47.242;8.648;2023-09-30T01:16:49;97111.91;;;19.81;77.78
54994;BME280;40891;47.242;8.648;2023-09-30T01:19:14;97109.53;;;19.74;79.88
54994;BME280;40891;47.242;8.648;2023-09-30T01:21:39;97115.66;;;19.72;79.39
54994;BME280;40891;47.242;8.648;2023-09-30T01:24:06;97112.06;;;19.72;79.32
54994;BME280;40891;47.242;8.648;2023-09-30T01:26:32;97112.06;;;19.72;79.48
54994;BME280;40891;47.242;8.648;2023-09-30T01:28:58;97117.22;;;19.73;79.22
54994;BME280;40891;47.242;8.648;2023-09-30T01:31:23;97108.00;;;19.73;78.89
54994;BME280;40891;47.242;8.648;2023-09-30T01:33:48;97101.56;;;19.72;79.32
54994;BME280;40891;47.242;8.648;2023-09-30T01:36:14;97092.66;;;19.79;78.79
54994;BME280;40891;47.242;8.648;2023-09-30T01:38:40;97089.56;;;19.77;79.41
54994;BME280;40891;47.242;8.648;2023-09-30T01:41:05;97095.38;;;19.68;79.11
54994;BME280;40891;47.242;8.648;2023-09-30T01:43:31;97104.25;;;19.61;79.47
54994;BME280;40891;47.242;8.648;2023-09-30T01:45:56;97099.25;;;19.50;79.72
54994;BME280;40891;47.242;8.648;2023-09-30T01:48:22;97113.88;;;19.49;80.59
54994;BME280;40891;47.242;8.648;2023-09-30T01:50:47;97102.56;;;19.49;81.41
54994;BME280;40891;47.242;8.648;2023-09-30T01:53:13;97100.31;;;19.53;81.64
54994;BME280;40891;47.242;8.648;2023-09-30T01:55:38;97105.31;;;19.63;80.52
54994;BME280;40891;47.242;8.648;2023-09-30T01:58:04;97093.81;;;19.67;79.47
54994;BME280;40891;47.242;8.648;2023-09-30T02:00:29;97107.88;;;19.61;79.05
54994;BME280;40891;47.242;8.648;2023-09-30T02:02:56;97095.72;;;19.55;78.93
54994;BME280;40891;47.242;8.648;2023-09-30T02:05:22;97100.59;;;19.55;78.90
54994;BME280;40891;47.242;8.648;2023-09-30T02:07:48;97096.72;;;19.52;79.41
54994;BME280;40891;47.242;8.648;2023-09-30T02:10:13;97100.59;;;19.55;79.58
54994;BME280;40891;47.242;8.648;2023-09-30T02:12:39;97095.97;;;19.52;78.83
54994;BME280;40891;47.242;8.648;2023-09-30T02:15:04;97087.25;;;19.55;80.04
54994;BME280;40891;47.242;8.648;2023-09-30T02:17:32;97096.94;;;19.49;80.59
54994;BME280;40891;47.242;8.648;2023-09-30T02:19:57;97092.00;;;19.44;80.34
54994;BME280;40891;47.242;8.648;2023-09-30T02:22:22;97088.03;;;19.36;81.92
54994;BME280;40891;47.242;8.648;2023-09-30T02:24:49;97085.63;;;19.29;81.51
54994;BME280;40891;47.242;8.648;2023-09-30T02:27:15;97084.78;;;19.23;81.63
54994;BME280;40891;47.242;8.648;2023-09-30T02:29:40;97085.47;;;19.18;81.25
54994;BME280;40891;47.242;8.648;2023-09-30T02:32:05;97093.09;;;19.12;82.06
54994;BME280;40891;47.242;8.648;2023-09-30T02:34:31;97094.34;;;19.11;82.45
54994;BME280;40891;47.242;8.648;2023-09-30T02:36:56;97095.63;;;19.10;81.86
54994;BME280;40891;47.242;8.648;2023-09-30T02:39:22;97095.06;;;19.06;81.92
54994;BME280;40891;47.242;8.648;2023-09-30T02:41:47;97093.53;;;19.05;82.24
54994;BME280;40891;47.242;8.648;2023-09-30T02:44:15;97092.31;;;19.11;82.25
54994;BME280;40891;47.242;8.648;2023-09-30T02:46:40;97098.66;;;19.06;82.80
54994;BME280;40891;47.242;8.648;2023-09-30T02:49:05;97099.91;;;19.05;82.78
54994;BME280;40891;47.242;8.648;2023-09-30T02:51:30;97102.53;;;19.09;82.70
54994;BME280;40891;47.242;8.648;2023-09-30T02:53:56;97109.72;;;19.10;83.54
54994;BME280;40891;47.242;8.648;2023-09-30T02:56:22;97111.97;;;19.06;83.66
54994;BME280;40891;47.242;8.648;2023-09-30T02:58:50;97100.69;;;19.06;83.63
54994;BME280;40891;47.242;8.648;2023-09-30T03:01:16;97092.78;;;19.10;83.52
54994;BME280;40891;47.242;8.648;2023-09-30T03:03:42;97093.84;;;19.12;83.70
54994;BME280;40891;47.242;8.648;2023-09-30T03:06:09;97098.44;;;19.10;83.61
54994;BME280;40891;47.242;8.648;2023-09-30T03:08:36;97098.44;;;19.10;83.86
54994;BME280;40891;47.242;8.648;2023-09-30T03:11:01;97102.81;;;19.11;83.31
54994;BME280;40891;47.242;8.648;2023-09-30T03:13:27;97110.03;;;19.12;84.49
54994;BME280;40891;47.242;8.648;2023-09-30T03:15:52;97104.56;;;19.08;83.94
54994;BME280;40891;47.242;8.648;2023-09-30T03:18:17;97106.63;;;19.08;84.41
54994;BME280;40891;47.242;8.648;2023-09-30T03:20:43;97114.50;;;19.03;84.55
54994;BME280;40891;47.242;8.648;2023-09-30T03:23:08;97111.69;;;19.03;84.24
54994;BME280;40891;47.242;8.648;2023-09-30T03:25:34;97099.44;;;19.07;84.08
54994;BME280;40891;47.242;8.648;2023-09-30T03:27:59;97103.44;;;19.00;83.79
54994;BME280;40891;47.242;8.648;2023-09-30T03:30:24;97107.03;;;19.00;83.69
54994;BME280;40891;47.242;8.648;2023-09-30T03:32:50;97102.97;;;19.01;84.50
54994;BME280;40891;47.242;8.648;2023-09-30T03:35:15;97100.28;;;19.13;84.22
54994;BME280;40891;47.242;8.648;2023-09-30T03:37:42;97109.16;;;19.06;83.68
54994;BME280;40891;47.242;8.648;2023-09-30T03:40:08;97109.66;;;19.04;84.43
54994;BME280;40891;47.242;8.648;2023-09-30T03:42:43;97119.88;;;19.01;84.96
54994;BME280;40891;47.242;8.648;2023-09-30T03:45:10;97121.34;;;18.97;84.47
54994;BME280;40891;47.242;8.648;2023-09-30T03:47:36;97121.81;;;18.95;85.33
54994;BME280;40891;47.242;8.648;2023-09-30T03:50:03;97121.34;;;18.97;84.84
54994;BME280;40891;47.242;8.648;2023-09-30T03:52:33;97119.91;;;18.87;85.59
54994;BME280;40891;47.242;8.648;2023-09-30T03:54:59;97125.25;;;18.85;85.83
54994;BME280;40891;47.242;8.648;2023-09-30T03:57:25;97120.41;;;18.85;84.85
54994;BME280;40891;47.242;8.648;2023-09-30T03:59:50;97118.34;;;18.86;85.17
54994;BME280;40891;47.242;8.648;2023-09-30T04:02:15;97122.53;;;18.90;84.86
54994;BME280;40891;47.242;8.648;2023-09-30T04:04:41;97125.16;;;18.79;84.77
54994;BME280;40891;47.242;8.648;2023-09-30T04:07:06;97120.59;;;18.82;85.24
54994;BME280;40891;47.242;8.648;2023-09-30T04:09:32;97112.13;;;18.82;84.93
54994;BME280;40891;47.242;8.648;2023-09-30T04:11:58;97114.69;;;18.80;84.27
54994;BME280;40891;47.242;8.648;2023-09-30T04:14:23;97119.53;;;18.79;84.99
54994;BME280;40891;47.242;8.648;2023-09-30T04:16:50;97106.03;;;18.83;84.49
54994;BME280;40891;47.242;8.648;2023-09-30T04:19:15;97107.84;;;18.86;84.01
54994;BME280;40891;47.242;8.648;2023-09-30T04:21:41;97101.16;;;18.84;82.98
54994;BME280;40891;47.242;8.648;2023-09-30T04:24:06;97101.16;;;18.84;83.98
54994;BME280;40891;47.242;8.648;2023-09-30T04:26:32;97098.94;;;18.88;82.94
54994;BME280;40891;47.242;8.648;2023-09-30T04:28:57;97096.16;;;18.93;84.79
54994;BME280;40891;47.242;8.648;2023-09-30T04:31:22;97090.75;;;18.90;83.68
54994;BME280;40891;47.242;8.648;2023-09-30T04:33:49;97089.75;;;18.93;84.22
54994;BME280;40891;47.242;8.648;2023-09-30T04:36:16;97087.72;;;18.93;83.19
54994;BME280;40891;47.242;8.648;2023-09-30T04:38:41;97086.19;;;18.92;83.48
54994;BME280;40891;47.242;8.648;2023-09-30T04:41:08;97082.22;;;18.84;85.07
54994;BME280;40891;47.242;8.648;2023-09-30T04:43:34;97079.25;;;18.73;85.32
54994;BME280;40891;47.242;8.648;2023-09-30T04:45:59;97090.78;;;18.75;85.03
54994;BME280;40891;47.242;8.648;2023-09-30T04:48:25;97083.81;;;18.71;85.21
54994;BME280;40891;47.242;8.648;2023-09-30T04:50:50;97102.25;;;18.72;85.29
54994;BME280;40891;47.242;8.648;2023-09-30T04:53:20;97107.59;;;18.70;85.09
54994;BME280;40891;47.242;8.648;2023-09-30T04:55:46;97110.69;;;18.72;85.60
54994;BME280;40891;47.242;8.648;2023-09-30T04:58:11;97112.84;;;18.62;86.08
54994;BME280;40891;47.242;8.648;2023-09-30T05:00:37;97112.56;;;18.60;85.61
54994;BME280;40891;47.242;8.648;2023-09-30T05:03:03;97104.41;;;18.62;84.49
54994;BME280;40891;47.242;8.648;2023-09-30T05:05:30;97102.09;;;18.61;84.76
54994;BME280;40891;47.242;8.648;2023-09-30T05:07:55;97090.03;;;18.60;85.06
54994;BME280;40891;47.242;8.648;2023-09-30T05:10:20;97093.22;;;18.68;86.40
54994;BME280;40891;47.242;8.648;2023-09-30T05:12:46;97106.25;;;18.65;86.00
54994;BME280;40891;47.242;8.648;2023-09-30T05:15:15;97117.34;;;18.69;85.78
54994;BME280;40891;47.242;8.648;2023-09-30T05:17:44;97112.75;;;18.71;86.47
54994;BME280;40891;47.242;8.648;2023-09-30T05:20:10;97114.69;;;18.65;86.04
54994;BME280;40891;47.242;8.648;2023-09-30T05:22:37;97119.56;;;18.65;86.08
54994;BME280;40891;47.242;8.648;2023-09-30T05:25:04;97114.31;;;18.58;87.26
54994;BME280;40891;47.242;8.648;2023-09-30T05:27:29;97122.50;;;18.56;86.79
54994;BME280;40891;47.242;8.648;2023-09-30T05:29:55;97120.16;;;18.54;87.09
54994;BME280;40891;47.242;8.648;2023-09-30T05:32:21;97127.34;;;18.55;87.39
54994;BME280;40891;47.242;8.648;2023-09-30T05:34:46;97119.19;;;18.57;86.63
54994;BME280;40891;47.242;8.648;2023-09-30T05:37:13;97118.59;;;18.53;87.76
54994;BME280;40891;47.242;8.648;2023-09-30T05:39:38;97116.28;;;18.52;87.74
54994;BME280;40891;47.242;8.648;2023-09-30T05:42:03;97120.16;;;18.54;86.88
54994;BME280;40891;47.242;8.648;2023-09-30T05:44:29;97123.38;;;18.47;87.63
54994;BME280;40891;47.242;8.648;2023-09-30T05:46:55;97136.38;;;18.45;88.08
54994;BME280;40891;47.242;8.648;2023-09-30T05:49:20;97147.16;;;18.46;88.67
54994;BME280;40891;47.242;8.648;2023-09-30T05:51:46;97146.78;;;18.53;87.88
54994;BME280;40891;47.242;8.648;2023-09-30T05:54:11;97151.69;;;18.44;88.74
54994;BME280;40891;47.242;8.648;2023-09-30T05:56:38;97152.81;;;18.46;89.11
54994;BME280;40891;47.242;8.648;2023-09-30T05:59:07;97154.75;;;18.55;88.58
54994;BME280;40891;47.242;8.648;2023-09-30T06:01:32;97158.31;;;18.55;88.73
54994;BME280;40891;47.242;8.648;2023-09-30T06:03:59;97167.56;;;18.56;89.00
54994;BME280;40891;47.242;8.648;2023-09-30T06:06:25;97155.50;;;18.55;89.07
54994;BME280;40891;47.242;8.648;2023-09-30T06:08:51;97153.38;;;18.65;88.19
54994;BME280;40891;47.242;8.648;2023-09-30T06:11:17;97151.72;;;18.58;88.81
54994;BME280;40891;47.242;8.648;2023-09-30T06:13:44;97153.19;;;18.68;88.38
54994;BME280;40891;47.242;8.648;2023-09-30T06:16:10;97154.66;;;18.64;88.21
54994;BME280;40891;47.242;8.648;2023-09-30T06:18:36;97157.47;;;18.64;88.77
54994;BME280;40891;47.242;8.648;2023-09-30T06:21:01;97165.13;;;18.63;88.48
54994;BME280;40891;47.242;8.648;2023-09-30T06:23:29;97160.75;;;18.62;88.84
54994;BME280;40891;47.242;8.648;2023-09-30T06:25:55;97167.84;;;18.72;88.04
54994;BME280;40891;47.242;8.648;2023-09-30T06:28:21;97170.59;;;18.67;89.22
54994;BME280;40891;47.242;8.648;2023-09-30T06:30:51;97174.13;;;18.82;88.67
54994;BME280;40891;47.242;8.648;2023-09-30T06:33:16;97179.69;;;18.76;88.14
54994;BME280;40891;47.242;8.648;2023-09-30T06:35:42;97187.94;;;18.80;88.76
54994;BME280;40891;47.242;8.648;2023-09-30T06:38:18;97191.53;;;18.80;88.53
54994;BME280;40891;47.242;8.648;2023-09-30T06:40:44;97195.63;;;18.79;88.23
54994;BME280;40891;47.242;8.648;2023-09-30T06:43:10;97190.47;;;18.78;88.78
54994;BME280;40891;47.242;8.648;2023-09-30T06:45:36;97195.31;;;18.77;89.15
54994;BME280;40891;47.242;8.648;2023-09-30T06:48:06;97198.44;;;18.79;88.29
54994;BME280;40891;47.242;8.648;2023-09-30T06:50:31;97199.22;;;18.80;89.69
54994;BME280;40891;47.242;8.648;2023-09-30T06:52:58;97199.59;;;18.87;88.80
54994;BME280;40891;47.242;8.648;2023-09-30T06:55:24;97196.75;;;19.02;88.76
54994;BME280;40891;47.242;8.648;2023-09-30T06:57:52;97207.53;;;19.03;87.88
54994;BME280;40891;47.242;8.648;2023-09-30T07:00:17;97205.38;;;19.13;86.65
54994;BME280;40891;47.242;8.648;2023-09-30T07:02:43;97201.66;;;19.22;87.47
54994;BME280;40891;47.242;8.648;2023-09-30T07:05:10;97213.13;;;19.33;85.54
54994;BME280;40891;47.242;8.648;2023-09-30T07:07:36;97206.31;;;19.25;86.03
54994;BME280;40891;47.242;8.648;2023-09-30T07:10:01;97207.16;;;19.31;85.76
54994;BME280;40891;47.242;8.648;2023-09-30T07:12:27;97205.19;;;19.51;85.95
54994;BME280;40891;47.242;8.648;2023-09-30T07:14:53;97214.06;;;19.44;85.72
54994;BME280;40891;47.242;8.648;2023-09-30T07:17:19;97209.00;;;19.34;84.33
54994;BME280;40891;47.242;8.648;2023-09-30T07:19:44;97207.94;;;19.31;85.81
54994;BME280;40891;47.242;8.648;2023-09-30T07:22:09;97202.59;;;19.33;84.68
54994;BME280;40891;47.242;8.648;2023-09-30T07:24:34;97208.44;;;19.30;83.75
54994;BME280;40891;47.242;8.648;2023-09-30T07:27:00;97212.66;;;19.54;84.07
54994;BME280;40891;47.242;8.648;2023-09-30T07:29:25;97214.38;;;19.66;83.34
54994;BME280;40891;47.242;8.648;2023-09-30T07:31:50;97216.53;;;19.97;83.41
54994;BME280;40891;47.242;8.648;2023-09-30T07:34:16;97211.06;;;20.08;81.91
54994;BME280;40891;47.242;8.648;2023-09-30T07:36:41;97210.22;;;20.22;80.99
54994;BME280;40891;47.242;8.648;2023-09-30T07:39:07;97206.78;;;20.39;80.73
54994;BME280;40891;47.242;8.648;2023-09-30T07:41:36;97213.84;;;20.28;78.65
54994;BME280;40891;47.242;8.648;2023-09-30T07:44:04;97213.75;;;20.69;77.35
54994;BME280;40891;47.242;8.648;2023-09-30T07:46:30;97213.94;;;20.91;77.35
54994;BME280;40891;47.242;8.648;2023-09-30T07:48:56;97238.56;;;20.85;76.91
54994;BME280;40891;47.242;8.648;2023-09-30T07:51:21;97235.19;;;21.07;76.74
54994;BME280;40891;47.242;8.648;2023-09-30T07:53:46;97238.97;;;21.03;75.92
54994;BME280;40891;47.242;8.648;2023-09-30T07:56:12;97231.25;;;20.73;75.82
54994;BME280;40891;47.242;8.648;2023-09-30T07:58:38;97234.00;;;20.93;76.34
54994;BME280;40891;47.242;8.648;2023-09-30T08:01:03;97239.66;;;20.93;77.26
54994;BME280;40891;47.242;8.648;2023-09-30T08:03:29;97242.16;;;20.85;76.65
54994;BME280;40891;47.242;8.648;2023-09-30T08:05:54;97236.03;;;20.61;77.52
54994;BME280;40891;47.242;8.648;2023-09-30T08:08:20;97241.06;;;20.52;78.08
54994;BME280;40891;47.242;8.648;2023-09-30T08:10:45;97241.03;;;20.46;79.23
54994;BME280;40891;47.242;8.648;2023-09-30T08:13:10;97227.28;;;20.59;78.36
54994;BME280;40891;47.242;8.648;2023-09-30T08:15:36;97218.28;;;20.86;78.46
54994;BME280;40891;47.242;8.648;2023-09-30T08:18:03;97212.13;;;21.19;76.44
54994;BME280;40891;47.242;8.648;2023-09-30T08:20:29;97212.34;;;21.52;73.57
54994;BME280;40891;47.242;8.648;2023-09-30T08:22:55;97212.09;;;21.93;72.89
54994;BME280;40891;47.242;8.648;2023-09-30T08:25:20;97215.78;;;22.21;70.94
54994;BME280;40891;47.242;8.648;2023-09-30T08:27:45;97204.78;;;22.45;69.16
54994;BME280;40891;47.242;8.648;2023-09-30T08:30:14;97196.31;;;22.67;69.94
54994;BME280;40891;47.242;8.648;2023-09-30T08:32:40;97202.00;;;23.00;65.80
54994;BME280;40891;47.242;8.648;2023-09-30T08:35:07;97195.47;;;23.78;65.06
54994;BME280;40891;47.242;8.648;2023-09-30T08:37:32;97199.66;;;24.23;62.14
54994;BME280;40891;47.242;8.648;2023-09-30T08:39:58;97205.94;;;24.57;60.17
54994;BME280;40891;47.242;8.648;2023-09-30T08:42:23;97212.59;;;25.35;56.72
54994;BME280;40891;47.242;8.648;2023-09-30T08:44:53;97211.94;;;26.02;53.80
54994;BME280;40891;47.242;8.648;2023-09-30T08:47:21;97205.13;;;27.61;49.93
54994;BME280;40891;47.242;8.648;2023-09-30T08:49:48;97212.84;;;28.92;46.83
54994;BME280;40891;47.242;8.648;2023-09-30T08:52:16;97204.56;;;30.20;43.83
54994;BME280;40891;47.242;8.648;2023-09-30T08:54:42;97193.25;;;31.09;40.77
54994;BME280;40891;47.242;8.648;2023-09-30T08:57:09;97176.84;;;31.47;38.36
54994;BME280;40891;47.242;8.648;2023-09-30T08:59:35;97162.63;;;31.64;39.28
54994;BME280;40891;47.242;8.648;2023-09-30T09:02:01;97151.34;;;32.28;38.14
54994;BME280;40891;47.242;8.648;2023-09-30T09:04:26;97150.44;;;33.30;36.09
54994;BME280;40891;47.242;8.648;2023-09-30T09:06:53;97162.06;;;33.15;36.45
54994;BME280;40891;47.242;8.648;2023-09-30T09:09:20;97164.38;;;33.41;35.57
54994;BME280;40891;47.242;8.648;2023-09-30T09:11:47;97170.56;;;33.63;34.31
54994;BME280;40891;47.242;8.648;2023-09-30T09:14:13;97174.38;;;34.75;32.99
54994;BME280;40891;47.242;8.648;2023-09-30T09:16:52;97178.44;;;34.72;32.16
54994;BME280;40891;47.242;8.648;2023-09-30T09:19:18;97175.09;;;33.73;34.58
54994;BME280;40891;47.242;8.648;2023-09-30T09:21:59;97180.81;;;31.74;36.49
54994;BME280;40891;47.242;8.648;2023-09-30T09:24:28;97182.84;;;29.76;41.59
54994;BME280;40891;47.242;8.648;2023-09-30T09:27:04;97184.84;;;28.98;43.32
54994;BME280;40891;47.242;8.648;2023-09-30T09:29:29;97179.66;;;28.96;44.21
54994;BME280;40891;47.242;8.648;2023-09-30T09:32:09;97187.09;;;29.13;41.51
54994;BME280;40891;47.242;8.648;2023-09-30T09:34:35;97186.13;;;30.08;40.20
54994;BME280;40891;47.242;8.648;2023-09-30T09:37:21;97182.84;;;30.04;40.00
54994;BME280;40891;47.242;8.648;2023-09-30T09:39:51;97174.25;;;30.98;39.41
54994;BME280;40891;47.242;8.648;2023-09-30T09:42:31;97180.03;;;30.47;41.09
54994;BME280;40891;47.242;8.648;2023-09-30T09:45:03;97193.28;;;30.58;38.95
54994;BME280;40891;47.242;8.648;2023-09-30T09:47:32;97202.38;;;29.77;38.92
54994;BME280;40891;47.242;8.648;2023-09-30T09:49:59;97194.41;;;29.01;40.99
54994;BME280;40891;47.242;8.648;2023-09-30T09:52:25;97198.78;;;27.82;44.30
54994;BME280;40891;47.242;8.648;2023-09-30T09:54:51;97199.25;;;27.28;47.23
54994;BME280;40891;47.242;8.648;2023-09-30T09:57:18;97199.34;;;26.34;49.23
54994;BME280;40891;47.242;8.648;2023-09-30T09:59:46;97206.69;;;26.06;49.73
54994;BME280;40891;47.242;8.648;2023-09-30T10:02:13;97196.53;;;26.10;50.02
54994;BME280;40891;47.242;8.648;2023-09-30T10:04:41;97192.63;;;26.13;50.65
54994;BME280;40891;47.242;8.648;2023-09-30T10:07:10;97194.25;;;25.85;51.96
54994;BME280;40891;47.242;8.648;2023-09-30T10:09:36;97190.16;;;26.23;50.68
54994;BME280;40891;47.242;8.648;2023-09-30T10:12:03;97181.06;;;26.24;49.02
54994;BME280;40891;47.242;8.648;2023-09-30T10:14:31;97188.25;;;26.31;48.33
54994;BME280;40891;47.242;8.648;2023-09-30T10:17:01;97198.94;;;26.99;47.37
54994;BME280;40891;47.242;8.648;2023-09-30T10:19:28;97195.91;;;27.42;47.54
54994;BME280;40891;47.242;8.648;2023-09-30T10:24:55;97186.25;;;27.98;47.61
54994;BME280;40891;47.242;8.648;2023-09-30T10:40:51;97138.84;;;35.09;31.32
54994;BME280;40891;47.242;8.648;2023-09-30T10:43:32;97116.88;;;36.55;27.47
54994;BME280;40891;47.242;8.648;2023-09-30T10:45:58;97111.53;;;37.21;26.36
54994;BME280;40891;47.242;8.648;2023-09-30T10:51:12;97120.09;;;37.80;25.84
54994;BME280;40891;47.242;8.648;2023-09-30T10:53:51;97121.72;;;37.93;25.70
54994;BME280;40891;47.242;8.648;2023-09-30T10:56:18;97110.69;;;38.66;24.21
54994;BME280;40891;47.242;8.648;2023-09-30T10:58:44;97117.19;;;38.23;24.54
54994;BME280;40891;47.242;8.648;2023-09-30T11:01:11;97112.59;;;37.77;26.67
54994;BME280;40891;47.242;8.648;2023-09-30T11:03:38;97107.31;;;37.95;25.51
54994;BME280;40891;47.242;8.648;2023-09-30T11:06:04;97089.94;;;38.60;26.16
54994;BME280;40891;47.242;8.648;2023-09-30T11:08:29;97089.91;;;39.05;26.26
54994;BME280;40891;47.242;8.648;2023-09-30T11:10:55;97090.09;;;39.41;24.16
54994;BME280;40891;47.242;8.648;2023-09-30T11:13:22;97090.72;;;39.17;24.37
54994;BME280;40891;47.242;8.648;2023-09-30T11:15:47;97102.38;;;38.72;25.24
54994;BME280;40891;47.242;8.648;2023-09-30T11:18:14;97100.28;;;38.52;26.23
54994;BME280;40891;47.242;8.648;2023-09-30T11:20:40;97097.94;;;39.62;25.32
54994;BME280;40891;47.242;8.648;2023-09-30T11:23:06;97090.47;;;39.36;25.47
54994;BME280;40891;47.242;8.648;2023-09-30T11:25:35;97089.56;;;39.80;23.98
54994;BME280;40891;47.242;8.648;2023-09-30T11:28:16;97082.94;;;39.91;22.95
54994;BME280;40891;47.242;8.648;2023-09-30T11:30:58;97072.25;;;40.69;23.72
54994;BME280;40891;47.242;8.648;2023-09-30T11:33:24;97085.00;;;40.62;23.19
54994;BME280;40891;47.242;8.648;2023-09-30T11:36:04;97081.50;;;40.77;23.70
54994;BME280;40891;47.242;8.648;2023-09-30T11:38:34;97075.13;;;41.19;22.51
54994;BME280;40891;47.242;8.648;2023-09-30T11:41:04;97075.91;;;41.61;22.45
54994;BME280;40891;47.242;8.648;2023-09-30T11:43:32;97076.13;;;41.37;23.26
54994;BME280;40891;47.242;8.648;2023-09-30T11:46:09;97069.81;;;40.52;22.86
54994;BME280;40891;47.242;8.648;2023-09-30T11:48:35;97066.38;;;41.19;22.50
54994;BME280;40891;47.242;8.648;2023-09-30T11:51:01;97068.41;;;41.17;23.27
54994;BME280;40891;47.242;8.648;2023-09-30T11:53:30;97058.81;;;41.82;21.93
54994;BME280;40891;47.242;8.648;2023-09-30T11:55:57;97060.69;;;41.76;22.46
54994;BME280;40891;47.242;8.648;2023-09-30T11:58:24;97057.47;;;42.55;22.38
54994;BME280;40891;47.242;8.648;2023-09-30T12:00:53;97069.47;;;40.71;23.14
54994;BME280;40891;47.242;8.648;2023-09-30T12:03:18;97067.03;;;40.42;24.80
54994;BME280;40891;47.242;8.648;2023-09-30T12:05:43;97057.66;;;42.30;22.99
54994;BME280;40891;47.242;8.648;2023-09-30T12:08:11;97088.34;;;38.15;25.28
54994;BME280;40891;47.242;8.648;2023-09-30T12:10:36;97079.69;;;35.29;29.01
54994;BME280;40891;47.242;8.648;2023-09-30T12:13:01;97070.03;;;36.40;28.74
54994;BME280;40891;47.242;8.648;2023-09-30T12:15:27;97062.13;;;37.30;27.94
54994;BME280;40891;47.242;8.648;2023-09-30T12:17:52;97048.03;;;39.56;25.50
54994;BME280;40891;47.242;8.648;2023-09-30T12:20:17;97045.06;;;40.28;24.48
54994;BME280;40891;47.242;8.648;2023-09-30T12:22:43;97048.03;;;40.92;21.95
54994;BME280;40891;47.242;8.648;2023-09-30T12:25:08;97042.50;;;40.34;24.66
54994;BME280;40891;47.242;8.648;2023-09-30T12:27:34;97031.06;;;42.11;21.22
54994;BME280;40891;47.242;8.648;2023-09-30T12:29:59;97039.22;;;37.77;25.58
54994;BME280;40891;47.242;8.648;2023-09-30T12:32:25;97042.13;;;37.77;25.34
54994;BME280;40891;47.242;8.648;2023-09-30T12:34:52;97040.22;;;39.24;24.76
54994;BME280;40891;47.242;8.648;2023-09-30T12:37:18;97040.44;;;39.99;23.34
54994;BME280;40891;47.242;8.648;2023-09-30T12:39:43;97036.38;;;38.87;23.82
54994;BME280;40891;47.242;8.648;2023-09-30T12:42:10;97030.59;;;39.44;23.89
54994;BME280;40891;47.242;8.648;2023-09-30T12:44:37;97023.25;;;39.32;23.80
54994;BME280;40891;47.242;8.648;2023-09-30T12:47:03;97021.78;;;41.05;23.11
54994;BME280;40891;47.242;8.648;2023-09-30T12:49:30;97023.44;;;39.82;22.65
54994;BME280;40891;47.242;8.648;2023-09-30T12:51:55;97023.38;;;39.22;23.68
54994;BME280;40891;47.242;8.648;2023-09-30T12:54:22;97022.22;;;39.39;24.64
54994;BME280;40891;47.242;8.648;2023-09-30T12:56:48;97030.25;;;39.87;22.98
54994;BME280;40891;47.242;8.648;2023-09-30T12:59:15;97033.88;;;37.83;25.34
54994;BME280;40891;47.242;8.648;2023-09-30T13:01:41;97026.81;;;36.72;26.22
54994;BME280;40891;47.242;8.648;2023-09-30T13:04:06;97032.22;;;38.90;24.48
54994;BME280;40891;47.242;8.648;2023-09-30T13:06:33;97023.16;;;38.18;24.63
54994;BME280;40891;47.242;8.648;2023-09-30T13:09:00;97016.69;;;39.20;23.74
54994;BME280;40891;47.242;8.648;2023-09-30T13:11:26;97026.88;;;37.76;26.36
54994;BME280;40891;47.242;8.648;2023-09-30T13:13:52;97022.31;;;36.50;26.88
54994;BME280;40891;47.242;8.648;2023-09-30T13:16:17;97020.81;;;35.53;26.67